sensor_id;sensor_type;location;lat;lon;timestamp;temperature;humidity
24144;DHT22;12307;50.828;6.080;2023-02-15T00:01:05;20.90;50.40
24144;DHT22;12307;50.828;6.080;2023-02-15T00:03:31;20.90;50.40
24144;DHT22;12307;50.828;6.080;2023-02-15T00:05:58;20.90;50.30
24144;DHT22;12307;50.828;6.080;2023-02-15T00:08:24;20.90;50.40
24144;DHT22;12307;50.828;6.080;2023-02-15T00:10:50;20.90;50.40
24144;DHT22;12307;50.828;6.080;2023-02-15T00:13:15;20.90;50.40
24144;DHT22;12307;50.828;6.080;2023-02-15T00:15:41;20.80;50.30
24144;DHT22;12307;50.828;6.080;2023-02-15T00:18:07;20.80;50.30
24144;DHT22;12307;50.828;6.080;2023-02-15T00:20:33;20.90;50.40
24144;DHT22;12307;50.828;6.080;2023-02-15T00:23:00;20.80;50.30
24144;DHT22;12307;50.828;6.080;2023-02-15T00:25:25;20.90;50.40
24144;DHT22;12307;50.828;6.080;2023-02-15T00:27:51;20.80;50.30
24144;DHT22;12307;50.828;6.080;2023-02-15T00:30:17;20.80;50.30
24144;DHT22;12307;50.828;6.080;2023-02-15T00:32:42;20.90;50.40
24144;DHT22;12307;50.828;6.080;2023-02-15T00:35:08;20.80;50.30
24144;DHT22;12307;50.828;6.080;2023-02-15T00:37:34;20.80;50.30
24144;DHT22;12307;50.828;6.080;2023-02-15T00:40:01;20.80;50.40
24144;DHT22;12307;50.828;6.080;2023-02-15T00:42:27;20.80;50.40
24144;DHT22;12307;50.828;6.080;2023-02-15T00:44:53;20.80;50.40
24144;DHT22;12307;50.828;6.080;2023-02-15T00:47:19;20.80;50.30
24144;DHT22;12307;50.828;6.080;2023-02-15T00:49:44;20.80;50.40
24144;DHT22;12307;50.828;6.080;2023-02-15T00:52:10;20.80;50.40
24144;DHT22;12307;50.828;6.080;2023-02-15T00:54:36;20.80;50.30
24144;DHT22;12307;50.828;6.080;2023-02-15T00:57:05;20.80;50.30
24144;DHT22;12307;50.828;6.080;2023-02-15T00:59:31;20.80;50.40
24144;DHT22;12307;50.828;6.080;2023-02-15T01:01:56;20.80;50.30
24144;DHT22;12307;50.828;6.080;2023-02-15T01:04:22;20.80;50.40
24144;DHT22;12307;50.828;6.080;2023-02-15T01:06:48;20.80;50.40
24144;DHT22;12307;50.828;6.080;2023-02-15T01:09:13;20.80;50.40
24144;DHT22;12307;50.828;6.080;2023-02-15T01:11:39;20.80;50.40
24144;DHT22;12307;50.828;6.080;2023-02-15T01:14:06;20.80;50.60
24144;DHT22;12307;50.828;6.080;2023-02-15T01:16:32;20.80;50.40
24144;DHT22;12307;50.828;6.080;2023-02-15T01:18:57;20.80;50.40
24144;DHT22;12307;50.828;6.080;2023-02-15T01:21:25;20.80;50.40
24144;DHT22;12307;50.828;6.080;2023-02-15T01:23:51;20.80;50.40
24144;DHT22;12307;50.828;6.080;2023-02-15T01:26:17;20.80;50.40
24144;DHT22;12307;50.828;6.080;2023-02-15T01:28:43;20.70;50.30
24144;DHT22;12307;50.828;6.080;2023-02-15T01:31:11;20.80;51.10
24144;DHT22;12307;50.828;6.080;2023-02-15T01:33:38;20.70;50.40
24144;DHT22;12307;50.828;6.080;2023-02-15T01:36:04;20.80;50.40
24144;DHT22;12307;50.828;6.080;2023-02-15T01:38:30;20.80;50.40
24144;DHT22;12307;50.828;6.080;2023-02-15T01:40:56;20.70;50.30
24144;DHT22;12307;50.828;6.080;2023-02-15T01:43:41;20.80;50.40
24144;DHT22;12307;50.828;6.080;2023-02-15T01:46:09;20.70;50.30
24144;DHT22;12307;50.828;6.080;2023-02-15T01:48:40;20.80;50.40
24144;DHT22;12307;50.828;6.080;2023-02-15T01:51:08;20.70;50.30
24144;DHT22;12307;50.828;6.080;2023-02-15T01:53:37;20.70;50.40
24144;DHT22;12307;50.828;6.080;2023-02-15T01:56:07;20.80;50.40
24144;DHT22;12307;50.828;6.080;2023-02-15T01:58:34;20.80;51.00
24144;DHT22;12307;50.828;6.080;2023-02-15T02:01:01;20.70;50.30
24144;DHT22;12307;50.828;6.080;2023-02-15T02:03:46;20.70;50.30
24144;DHT22;12307;50.828;6.080;2023-02-15T02:06:15;20.70;50.30
24144;DHT22;12307;50.828;6.080;2023-02-15T02:08:42;20.70;50.40
24144;DHT22;12307;50.828;6.080;2023-02-15T02:11:10;20.70;50.30
24144;DHT22;12307;50.828;6.080;2023-02-15T02:13:36;20.70;50.40
24144;DHT22;12307;50.828;6.080;2023-02-15T02:16:08;20.70;50.40
24144;DHT22;12307;50.828;6.080;2023-02-15T02:18:44;20.70;50.30
24144;DHT22;12307;50.828;6.080;2023-02-15T02:21:29;20.70;50.30
24144;DHT22;12307;50.828;6.080;2023-02-15T02:24:23;20.70;50.30
24144;DHT22;12307;50.828;6.080;2023-02-15T02:27:16;20.70;50.40
24144;DHT22;12307;50.828;6.080;2023-02-15T02:30:18;20.70;50.30
24144;DHT22;12307;50.828;6.080;2023-02-15T02:35:58;20.70;50.30
24144;DHT22;12307;50.828;6.080;2023-02-15T02:38:28;20.70;50.30
24144;DHT22;12307;50.828;6.080;2023-02-15T02:41:07;20.70;50.40
24144;DHT22;12307;50.828;6.080;2023-02-15T02:43:40;20.70;50.30
24144;DHT22;12307;50.828;6.080;2023-02-15T02:46:16;20.70;50.30
24144;DHT22;12307;50.828;6.080;2023-02-15T02:48:44;20.70;50.40
24144;DHT22;12307;50.828;6.080;2023-02-15T02:51:11;20.70;50.30
24144;DHT22;12307;50.828;6.080;2023-02-15T02:53:36;20.70;50.30
24144;DHT22;12307;50.828;6.080;2023-02-15T02:56:07;20.70;50.30
24144;DHT22;12307;50.828;6.080;2023-02-15T02:58:38;20.70;50.30
24144;DHT22;12307;50.828;6.080;2023-02-15T03:01:10;20.70;50.30
24144;DHT22;12307;50.828;6.080;2023-02-15T03:03:41;20.70;50.40
24144;DHT22;12307;50.828;6.080;2023-02-15T03:06:12;20.70;50.30
24144;DHT22;12307;50.828;6.080;2023-02-15T03:08:46;20.70;50.30
24144;DHT22;12307;50.828;6.080;2023-02-15T03:11:13;20.70;50.30
24144;DHT22;12307;50.828;6.080;2023-02-15T03:13:39;20.70;50.30
24144;DHT22;12307;50.828;6.080;2023-02-15T03:16:06;20.70;50.30
24144;DHT22;12307;50.828;6.080;2023-02-15T03:18:55;20.70;50.30
24144;DHT22;12307;50.828;6.080;2023-02-15T03:21:30;20.70;50.30
24144;DHT22;12307;50.828;6.080;2023-02-15T03:24:01;20.60;50.30
24144;DHT22;12307;50.828;6.080;2023-02-15T03:26:29;20.70;50.30
24144;DHT22;12307;50.828;6.080;2023-02-15T03:28:57;20.70;50.30
24144;DHT22;12307;50.828;6.080;2023-02-15T03:31:27;20.70;50.30
24144;DHT22;12307;50.828;6.080;2023-02-15T03:33:57;20.70;50.30
24144;DHT22;12307;50.828;6.080;2023-02-15T03:36:30;20.70;50.30
24144;DHT22;12307;50.828;6.080;2023-02-15T03:39:02;20.70;50.30
24144;DHT22;12307;50.828;6.080;2023-02-15T03:41:34;20.60;50.30
24144;DHT22;12307;50.828;6.080;2023-02-15T03:44:05;20.60;50.30
24144;DHT22;12307;50.828;6.080;2023-02-15T03:46:34;20.60;50.30
24144;DHT22;12307;50.828;6.080;2023-02-15T03:49:05;20.70;50.30
24144;DHT22;12307;50.828;6.080;2023-02-15T03:51:37;20.60;50.30
24144;DHT22;12307;50.828;6.080;2023-02-15T03:54:07;20.60;50.30
24144;DHT22;12307;50.828;6.080;2023-02-15T03:56:35;20.60;50.30
24144;DHT22;12307;50.828;6.080;2023-02-15T03:59:02;20.60;50.30
24144;DHT22;12307;50.828;6.080;2023-02-15T04:01:55;20.60;50.30
24144;DHT22;12307;50.828;6.080;2023-02-15T04:04:25;20.60;50.30
24144;DHT22;12307;50.828;6.080;2023-02-15T04:06:53;20.60;50.30
24144;DHT22;12307;50.828;6.080;2023-02-15T04:09:19;20.60;50.30
24144;DHT22;12307;50.828;6.080;2023-02-15T04:12:03;20.60;50.30
24144;DHT22;12307;50.828;6.080;2023-02-15T04:14:29;20.60;50.30
24144;DHT22;12307;50.828;6.080;2023-02-15T04:17:14;20.60;50.30
24144;DHT22;12307;50.828;6.080;2023-02-15T04:19:39;20.60;50.30
24144;DHT22;12307;50.828;6.080;2023-02-15T04:22:25;20.60;50.30
24144;DHT22;12307;50.828;6.080;2023-02-15T04:25:09;20.60;50.30
24144;DHT22;12307;50.828;6.080;2023-02-15T04:27:36;20.60;50.30
24144;DHT22;12307;50.828;6.080;2023-02-15T04:30:02;20.60;50.20
24144;DHT22;12307;50.828;6.080;2023-02-15T04:32:28;20.60;50.30
24144;DHT22;12307;50.828;6.080;2023-02-15T04:34:53;20.60;50.30
24144;DHT22;12307;50.828;6.080;2023-02-15T04:37:19;20.60;50.30
24144;DHT22;12307;50.828;6.080;2023-02-15T04:39:46;20.60;50.30
24144;DHT22;12307;50.828;6.080;2023-02-15T04:42:12;20.60;50.30
24144;DHT22;12307;50.828;6.080;2023-02-15T04:44:38;20.60;50.30
24144;DHT22;12307;50.828;6.080;2023-02-15T04:47:03;20.60;50.30
24144;DHT22;12307;50.828;6.080;2023-02-15T04:49:29;20.60;50.30
24144;DHT22;12307;50.828;6.080;2023-02-15T04:51:55;20.60;50.20
24144;DHT22;12307;50.828;6.080;2023-02-15T04:54:21;20.60;50.20
24144;DHT22;12307;50.828;6.080;2023-02-15T04:56:48;20.60;50.20
24144;DHT22;12307;50.828;6.080;2023-02-15T04:59:14;20.60;50.20
24144;DHT22;12307;50.828;6.080;2023-02-15T05:01:39;20.60;50.20
24144;DHT22;12307;50.828;6.080;2023-02-15T05:04:05;20.60;50.30
24144;DHT22;12307;50.828;6.080;2023-02-15T05:06:31;20.60;50.20
24144;DHT22;12307;50.828;6.080;2023-02-15T05:08:56;20.60;50.20
24144;DHT22;12307;50.828;6.080;2023-02-15T05:11:24;20.60;50.20
24144;DHT22;12307;50.828;6.080;2023-02-15T05:13:51;20.50;50.10
24144;DHT22;12307;50.828;6.080;2023-02-15T05:16:17;20.60;50.20
24144;DHT22;12307;50.828;6.080;2023-02-15T05:18:43;20.60;50.20
24144;DHT22;12307;50.828;6.080;2023-02-15T05:21:09;20.60;50.30
24144;DHT22;12307;50.828;6.080;2023-02-15T05:23:35;20.50;50.10
24144;DHT22;12307;50.828;6.080;2023-02-15T05:26:01;20.50;50.10
24144;DHT22;12307;50.828;6.080;2023-02-15T05:28:45;20.60;50.20
24144;DHT22;12307;50.828;6.080;2023-02-15T05:31:14;20.60;50.20
24144;DHT22;12307;50.828;6.080;2023-02-15T05:33:41;20.60;50.20
24144;DHT22;12307;50.828;6.080;2023-02-15T05:36:08;20.60;50.20
24144;DHT22;12307;50.828;6.080;2023-02-15T05:38:35;20.60;50.20
24144;DHT22;12307;50.828;6.080;2023-02-15T05:41:03;20.60;50.80
24144;DHT22;12307;50.828;6.080;2023-02-15T05:43:28;20.60;50.20
24144;DHT22;12307;50.828;6.080;2023-02-15T05:45:54;20.60;50.20
24144;DHT22;12307;50.828;6.080;2023-02-15T05:48:23;20.60;50.20
24144;DHT22;12307;50.828;6.080;2023-02-15T05:50:57;20.50;50.10
24144;DHT22;12307;50.828;6.080;2023-02-15T05:53:23;20.60;50.20
24144;DHT22;12307;50.828;6.080;2023-02-15T05:55:48;20.50;50.10
24144;DHT22;12307;50.828;6.080;2023-02-15T05:58:14;20.60;50.20
24144;DHT22;12307;50.828;6.080;2023-02-15T06:00:40;20.60;50.20
24144;DHT22;12307;50.828;6.080;2023-02-15T06:03:05;20.60;50.20
24144;DHT22;12307;50.828;6.080;2023-02-15T06:05:33;20.50;50.10
24144;DHT22;12307;50.828;6.080;2023-02-15T06:07:59;20.50;50.10
24144;DHT22;12307;50.828;6.080;2023-02-15T06:10:25;20.50;50.10
24144;DHT22;12307;50.828;6.080;2023-02-15T06:12:51;20.50;50.10
24144;DHT22;12307;50.828;6.080;2023-02-15T06:15:16;20.50;50.10
24144;DHT22;12307;50.828;6.080;2023-02-15T06:17:42;20.50;50.10
24144;DHT22;12307;50.828;6.080;2023-02-15T06:20:09;20.50;50.10
24144;DHT22;12307;50.828;6.080;2023-02-15T06:22:36;20.50;50.10
24144;DHT22;12307;50.828;6.080;2023-02-15T06:25:02;20.50;50.10
24144;DHT22;12307;50.828;6.080;2023-02-15T06:27:28;20.50;50.10
24144;DHT22;12307;50.828;6.080;2023-02-15T06:29:54;20.50;50.10
24144;DHT22;12307;50.828;6.080;2023-02-15T06:32:20;20.50;50.10
24144;DHT22;12307;50.828;6.080;2023-02-15T06:34:46;20.50;50.10
24144;DHT22;12307;50.828;6.080;2023-02-15T06:37:11;20.50;50.10
24144;DHT22;12307;50.828;6.080;2023-02-15T06:39:39;20.50;50.10
24144;DHT22;12307;50.828;6.080;2023-02-15T06:42:04;20.50;50.10
24144;DHT22;12307;50.828;6.080;2023-02-15T06:44:31;20.50;50.10
24144;DHT22;12307;50.828;6.080;2023-02-15T06:47:03;20.50;50.00
24144;DHT22;12307;50.828;6.080;2023-02-15T06:49:29;20.50;50.00
24144;DHT22;12307;50.828;6.080;2023-02-15T06:51:54;20.50;50.00
24144;DHT22;12307;50.828;6.080;2023-02-15T06:54:20;20.50;50.00
24144;DHT22;12307;50.828;6.080;2023-02-15T06:56:47;20.50;50.00
24144;DHT22;12307;50.828;6.080;2023-02-15T06:59:13;20.50;50.00
24144;DHT22;12307;50.828;6.080;2023-02-15T07:01:39;20.50;50.00
24144;DHT22;12307;50.828;6.080;2023-02-15T07:04:04;20.50;50.00
24144;DHT22;12307;50.828;6.080;2023-02-15T07:06:31;20.50;49.90
24144;DHT22;12307;50.828;6.080;2023-02-15T07:08:57;20.50;49.90
24144;DHT22;12307;50.828;6.080;2023-02-15T07:11:23;20.60;50.00
24144;DHT22;12307;50.828;6.080;2023-02-15T07:14:08;20.60;50.00
24144;DHT22;12307;50.828;6.080;2023-02-15T07:16:34;20.60;50.00
24144;DHT22;12307;50.828;6.080;2023-02-15T07:19:00;20.50;49.90
24144;DHT22;12307;50.828;6.080;2023-02-15T07:21:26;20.60;50.00
24144;DHT22;12307;50.828;6.080;2023-02-15T07:23:51;20.50;50.00
24144;DHT22;12307;50.828;6.080;2023-02-15T07:26:18;20.60;50.00
24144;DHT22;12307;50.828;6.080;2023-02-15T07:28:43;20.60;50.00
24144;DHT22;12307;50.828;6.080;2023-02-15T07:31:11;20.50;49.90
24144;DHT22;12307;50.828;6.080;2023-02-15T07:33:36;20.60;49.90
24144;DHT22;12307;50.828;6.080;2023-02-15T07:36:04;20.60;50.50
24144;DHT22;12307;50.828;6.080;2023-02-15T07:38:31;20.60;49.90
24144;DHT22;12307;50.828;6.080;2023-02-15T07:40:58;20.60;49.90
24144;DHT22;12307;50.828;6.080;2023-02-15T07:43:24;20.60;49.90
24144;DHT22;12307;50.828;6.080;2023-02-15T07:45:49;20.50;49.80
24144;DHT22;12307;50.828;6.080;2023-02-15T07:48:16;20.50;49.80
24144;DHT22;12307;50.828;6.080;2023-02-15T07:50:43;20.50;49.70
24144;DHT22;12307;50.828;6.080;2023-02-15T07:53:09;20.50;49.70
24144;DHT22;12307;50.828;6.080;2023-02-15T07:55:34;20.50;49.50
24144;DHT22;12307;50.828;6.080;2023-02-15T07:58:02;20.50;49.40
24144;DHT22;12307;50.828;6.080;2023-02-15T08:00:28;20.50;49.30
24144;DHT22;12307;50.828;6.080;2023-02-15T08:02:55;20.60;49.20
24144;DHT22;12307;50.828;6.080;2023-02-15T08:05:41;20.60;49.20
24144;DHT22;12307;50.828;6.080;2023-02-15T08:08:08;20.60;49.00
24144;DHT22;12307;50.828;6.080;2023-02-15T08:10:34;20.70;49.00
24144;DHT22;12307;50.828;6.080;2023-02-15T08:13:19;20.70;48.90
24144;DHT22;12307;50.828;6.080;2023-02-15T08:15:50;20.70;48.80
24144;DHT22;12307;50.828;6.080;2023-02-15T08:18:15;20.70;48.70
24144;DHT22;12307;50.828;6.080;2023-02-15T08:20:43;20.80;48.70
24144;DHT22;12307;50.828;6.080;2023-02-15T08:23:13;20.80;48.60
24144;DHT22;12307;50.828;6.080;2023-02-15T08:25:40;20.90;48.60
24144;DHT22;12307;50.828;6.080;2023-02-15T08:28:06;20.90;48.50
24144;DHT22;12307;50.828;6.080;2023-02-15T08:30:31;20.90;48.50
24144;DHT22;12307;50.828;6.080;2023-02-15T08:32:57;21.00;48.40
24144;DHT22;12307;50.828;6.080;2023-02-15T08:35:24;21.00;48.40
24144;DHT22;12307;50.828;6.080;2023-02-15T08:37:57;21.00;48.30
24144;DHT22;12307;50.828;6.080;2023-02-15T08:40:22;21.10;48.30
24144;DHT22;12307;50.828;6.080;2023-02-15T08:42:48;21.10;48.30
24144;DHT22;12307;50.828;6.080;2023-02-15T08:45:14;21.10;48.10
24144;DHT22;12307;50.828;6.080;2023-02-15T08:47:40;21.20;48.10
24144;DHT22;12307;50.828;6.080;2023-02-15T08:50:07;21.30;48.00
24144;DHT22;12307;50.828;6.080;2023-02-15T08:52:32;21.40;47.90
24144;DHT22;12307;50.828;6.080;2023-02-15T08:54:59;21.50;47.80
24144;DHT22;12307;50.828;6.080;2023-02-15T08:57:25;21.60;47.60
24144;DHT22;12307;50.828;6.080;2023-02-15T08:59:52;21.80;47.50
24144;DHT22;12307;50.828;6.080;2023-02-15T09:02:20;21.90;47.30
24144;DHT22;12307;50.828;6.080;2023-02-15T09:04:46;22.10;47.70
24144;DHT22;12307;50.828;6.080;2023-02-15T09:07:11;22.30;46.80
24144;DHT22;12307;50.828;6.080;2023-02-15T09:09:37;22.60;46.60
24144;DHT22;12307;50.828;6.080;2023-02-15T09:12:05;22.80;46.20
24144;DHT22;12307;50.828;6.080;2023-02-15T09:14:30;23.00;46.00
24144;DHT22;12307;50.828;6.080;2023-02-15T09:16:56;23.20;45.90
24144;DHT22;12307;50.828;6.080;2023-02-15T09:19:23;23.40;45.70
24144;DHT22;12307;50.828;6.080;2023-02-15T09:21:49;23.60;45.60
24144;DHT22;12307;50.828;6.080;2023-02-15T09:24:15;23.70;45.30
24144;DHT22;12307;50.828;6.080;2023-02-15T09:26:43;23.90;45.10
24144;DHT22;12307;50.828;6.080;2023-02-15T09:29:12;24.00;44.90
24144;DHT22;12307;50.828;6.080;2023-02-15T09:31:39;24.10;44.80
24144;DHT22;12307;50.828;6.080;2023-02-15T09:34:06;24.30;44.50
24144;DHT22;12307;50.828;6.080;2023-02-15T09:36:34;24.40;44.40
24144;DHT22;12307;50.828;6.080;2023-02-15T09:39:04;24.50;44.10
24144;DHT22;12307;50.828;6.080;2023-02-15T09:41:52;24.70;43.90
24144;DHT22;12307;50.828;6.080;2023-02-15T09:44:29;24.90;43.70
24144;DHT22;12307;50.828;6.080;2023-02-15T09:50:11;25.10;43.30
24144;DHT22;12307;50.828;6.080;2023-02-15T09:52:49;25.10;43.20
24144;DHT22;12307;50.828;6.080;2023-02-15T09:55:32;25.10;43.00
24144;DHT22;12307;50.828;6.080;2023-02-15T09:58:06;25.10;42.90
24144;DHT22;12307;50.828;6.080;2023-02-15T10:00:43;25.20;42.80
24144;DHT22;12307;50.828;6.080;2023-02-15T10:03:22;25.40;42.70
24144;DHT22;12307;50.828;6.080;2023-02-15T10:06:01;25.50;42.50
24144;DHT22;12307;50.828;6.080;2023-02-15T10:08:40;25.60;42.30
24144;DHT22;12307;50.828;6.080;2023-02-15T10:11:15;25.70;42.10
24144;DHT22;12307;50.828;6.080;2023-02-15T10:16:58;26.00;41.70
24144;DHT22;12307;50.828;6.080;2023-02-15T10:19:36;26.10;41.50
24144;DHT22;12307;50.828;6.080;2023-02-15T10:22:16;26.20;41.20
24144;DHT22;12307;50.828;6.080;2023-02-15T10:27:41;26.50;40.70
24144;DHT22;12307;50.828;6.080;2023-02-15T10:30:12;26.60;40.50
24144;DHT22;12307;50.828;6.080;2023-02-15T10:32:45;26.70;40.40
24144;DHT22;12307;50.828;6.080;2023-02-15T10:35:19;26.80;40.30
24144;DHT22;12307;50.828;6.080;2023-02-15T10:37:52;26.80;40.00
24144;DHT22;12307;50.828;6.080;2023-02-15T10:40:28;26.90;39.90
24144;DHT22;12307;50.828;6.080;2023-02-15T10:45:54;27.00;39.50
24144;DHT22;12307;50.828;6.080;2023-02-15T10:48:40;27.10;39.30
24144;DHT22;12307;50.828;6.080;2023-02-15T10:51:13;27.20;39.00
24144;DHT22;12307;50.828;6.080;2023-02-15T10:54:07;27.30;38.80
24144;DHT22;12307;50.828;6.080;2023-02-15T10:56:38;27.40;38.50
24144;DHT22;12307;50.828;6.080;2023-02-15T10:59:30;27.50;38.40
24144;DHT22;12307;50.828;6.080;2023-02-15T11:02:03;27.60;38.20
24144;DHT22;12307;50.828;6.080;2023-02-15T11:04:50;27.60;38.00
24144;DHT22;12307;50.828;6.080;2023-02-15T11:07:21;27.70;37.80
24144;DHT22;12307;50.828;6.080;2023-02-15T11:09:50;27.70;37.70
24144;DHT22;12307;50.828;6.080;2023-02-15T11:12:22;27.80;37.60
24144;DHT22;12307;50.828;6.080;2023-02-15T11:14:52;27.80;37.50
24144;DHT22;12307;50.828;6.080;2023-02-15T11:17:23;27.80;37.50
24144;DHT22;12307;50.828;6.080;2023-02-15T11:19:56;27.80;37.50
24144;DHT22;12307;50.828;6.080;2023-02-15T11:22:23;27.80;37.50
24144;DHT22;12307;50.828;6.080;2023-02-15T11:24:50;27.70;37.40
24144;DHT22;12307;50.828;6.080;2023-02-15T11:27:19;27.70;37.50
24144;DHT22;12307;50.828;6.080;2023-02-15T11:29:53;27.70;37.50
24144;DHT22;12307;50.828;6.080;2023-02-15T11:32:23;27.70;37.60
24144;DHT22;12307;50.828;6.080;2023-02-15T11:34:53;27.70;37.60
24144;DHT22;12307;50.828;6.080;2023-02-15T11:37:24;27.70;37.80
24144;DHT22;12307;50.828;6.080;2023-02-15T11:39:53;27.70;37.80
24144;DHT22;12307;50.828;6.080;2023-02-15T11:42:21;27.60;37.90
24144;DHT22;12307;50.828;6.080;2023-02-15T11:44:56;27.60;38.00
24144;DHT22;12307;50.828;6.080;2023-02-15T11:47:24;27.50;38.00
24144;DHT22;12307;50.828;6.080;2023-02-15T11:49:50;27.50;38.10
24144;DHT22;12307;50.828;6.080;2023-02-15T11:52:18;27.50;38.20
24144;DHT22;12307;50.828;6.080;2023-02-15T11:54:46;27.40;38.20
24144;DHT22;12307;50.828;6.080;2023-02-15T11:57:17;27.40;38.30
24144;DHT22;12307;50.828;6.080;2023-02-15T11:59:48;27.40;38.40
24144;DHT22;12307;50.828;6.080;2023-02-15T12:02:18;27.30;38.60
24144;DHT22;12307;50.828;6.080;2023-02-15T12:04:48;27.30;38.70
24144;DHT22;12307;50.828;6.080;2023-02-15T12:07:19;27.30;38.80
24144;DHT22;12307;50.828;6.080;2023-02-15T12:09:50;27.20;38.90
24144;DHT22;12307;50.828;6.080;2023-02-15T12:12:23;27.20;39.00
24144;DHT22;12307;50.828;6.080;2023-02-15T12:14:51;27.10;39.00
24144;DHT22;12307;50.828;6.080;2023-02-15T12:17:18;27.10;39.20
24144;DHT22;12307;50.828;6.080;2023-02-15T12:19:46;27.10;39.30
24144;DHT22;12307;50.828;6.080;2023-02-15T12:22:22;27.00;39.40
24144;DHT22;12307;50.828;6.080;2023-02-15T12:24:50;26.90;39.40
24144;DHT22;12307;50.828;6.080;2023-02-15T12:27:18;26.90;39.40
24144;DHT22;12307;50.828;6.080;2023-02-15T12:29:48;26.90;39.50
24144;DHT22;12307;50.828;6.080;2023-02-15T12:32:17;26.90;39.60
24144;DHT22;12307;50.828;6.080;2023-02-15T12:34:44;26.80;39.60
24144;DHT22;12307;50.828;6.080;2023-02-15T12:37:16;26.80;39.80
24144;DHT22;12307;50.828;6.080;2023-02-15T12:39:53;26.70;39.90
24144;DHT22;12307;50.828;6.080;2023-02-15T12:42:19;26.60;40.00
24144;DHT22;12307;50.828;6.080;2023-02-15T12:44:58;26.60;40.10
24144;DHT22;12307;50.828;6.080;2023-02-15T12:47:25;26.50;40.10
24144;DHT22;12307;50.828;6.080;2023-02-15T12:50:12;26.50;40.20
24144;DHT22;12307;50.828;6.080;2023-02-15T12:52:42;26.40;40.20
24144;DHT22;12307;50.828;6.080;2023-02-15T12:55:21;26.40;40.10
24144;DHT22;12307;50.828;6.080;2023-02-15T12:57:48;26.30;40.10
24144;DHT22;12307;50.828;6.080;2023-02-15T13:00:27;26.30;40.10
24144;DHT22;12307;50.828;6.080;2023-02-15T13:02:55;26.30;40.10
24144;DHT22;12307;50.828;6.080;2023-02-15T13:05:26;26.30;40.10
24144;DHT22;12307;50.828;6.080;2023-02-15T13:07:56;26.30;40.20
24144;DHT22;12307;50.828;6.080;2023-02-15T13:10:27;26.30;40.20
24144;DHT22;12307;50.828;6.080;2023-02-15T13:12:55;26.20;40.30
24144;DHT22;12307;50.828;6.080;2023-02-15T13:15:26;26.10;40.30
24144;DHT22;12307;50.828;6.080;2023-02-15T13:17:54;26.00;40.50
24144;DHT22;12307;50.828;6.080;2023-02-15T13:20:21;25.90;40.60
24144;DHT22;12307;50.828;6.080;2023-02-15T13:22:50;25.80;40.70
24144;DHT22;12307;50.828;6.080;2023-02-15T13:25:19;25.60;41.40
24144;DHT22;12307;50.828;6.080;2023-02-15T13:27:51;25.60;40.90
24144;DHT22;12307;50.828;6.080;2023-02-15T13:30:22;25.50;41.60
24144;DHT22;12307;50.828;6.080;2023-02-15T13:32:49;25.40;41.00
24144;DHT22;12307;50.828;6.080;2023-02-15T13:35:18;25.40;41.20
24144;DHT22;12307;50.828;6.080;2023-02-15T13:38:32;25.30;41.20
24144;DHT22;12307;50.828;6.080;2023-02-15T13:41:04;25.20;41.30
24144;DHT22;12307;50.828;6.080;2023-02-15T13:43:43;25.10;41.50
24144;DHT22;12307;50.828;6.080;2023-02-15T13:46:21;25.00;41.60
24144;DHT22;12307;50.828;6.080;2023-02-15T13:48:59;24.90;41.70
24144;DHT22;12307;50.828;6.080;2023-02-15T13:51:34;24.80;41.80
24144;DHT22;12307;50.828;6.080;2023-02-15T13:54:15;24.70;41.90
24144;DHT22;12307;50.828;6.080;2023-02-15T13:56:50;24.60;42.00
24144;DHT22;12307;50.828;6.080;2023-02-15T13:59:36;24.50;42.20
24144;DHT22;12307;50.828;6.080;2023-02-15T14:02:35;24.40;42.30
24144;DHT22;12307;50.828;6.080;2023-02-15T14:05:21;24.30;42.40
24144;DHT22;12307;50.828;6.080;2023-02-15T14:07:56;24.20;42.50
24144;DHT22;12307;50.828;6.080;2023-02-15T14:10:34;24.20;42.60
24144;DHT22;12307;50.828;6.080;2023-02-15T14:16:03;24.10;42.70
24144;DHT22;12307;50.828;6.080;2023-02-15T14:18:38;24.00;42.80
24144;DHT22;12307;50.828;6.080;2023-02-15T14:21:10;24.00;42.80
24144;DHT22;12307;50.828;6.080;2023-02-15T14:23:48;23.90;42.90
24144;DHT22;12307;50.828;6.080;2023-02-15T14:26:26;23.80;43.00
24144;DHT22;12307;50.828;6.080;2023-02-15T14:29:06;23.80;43.10
24144;DHT22;12307;50.828;6.080;2023-02-15T14:31:37;23.70;43.10
24144;DHT22;12307;50.828;6.080;2023-02-15T14:34:03;23.60;43.20
24144;DHT22;12307;50.828;6.080;2023-02-15T14:36:30;23.50;43.30
24144;DHT22;12307;50.828;6.080;2023-02-15T14:39:21;23.50;43.40
24144;DHT22;12307;50.828;6.080;2023-02-15T14:42:13;23.50;43.60
24144;DHT22;12307;50.828;6.080;2023-02-15T14:44:45;23.40;43.60
24144;DHT22;12307;50.828;6.080;2023-02-15T14:47:20;23.40;43.60
24144;DHT22;12307;50.828;6.080;2023-02-15T14:49:48;23.40;43.70
24144;DHT22;12307;50.828;6.080;2023-02-15T14:52:14;23.30;43.70
24144;DHT22;12307;50.828;6.080;2023-02-15T14:54:59;23.20;43.70
24144;DHT22;12307;50.828;6.080;2023-02-15T14:57:34;23.20;43.80
24144;DHT22;12307;50.828;6.080;2023-02-15T15:00:01;23.20;43.80
24144;DHT22;12307;50.828;6.080;2023-02-15T15:02:43;23.20;43.90
24144;DHT22;12307;50.828;6.080;2023-02-15T15:05:18;23.10;43.90
24144;DHT22;12307;50.828;6.080;2023-02-15T15:07:47;23.10;43.90
24144;DHT22;12307;50.828;6.080;2023-02-15T15:10:33;23.10;43.90
24144;DHT22;12307;50.828;6.080;2023-02-15T15:13:34;23.10;44.00
24144;DHT22;12307;50.828;6.080;2023-02-15T15:16:25;23.00;44.00
24144;DHT22;12307;50.828;6.080;2023-02-15T15:18:54;23.00;44.00
24144;DHT22;12307;50.828;6.080;2023-02-15T15:24:47;23.00;44.00
24144;DHT22;12307;50.828;6.080;2023-02-15T15:27:42;22.90;44.10
24144;DHT22;12307;50.828;6.080;2023-02-15T15:30:48;22.90;44.10
24144;DHT22;12307;50.828;6.080;2023-02-15T15:33:31;22.80;44.10
24144;DHT22;12307;50.828;6.080;2023-02-15T15:42:21;22.70;44.20
24144;DHT22;12307;50.828;6.080;2023-02-15T15:45:08;22.70;44.30
24144;DHT22;12307;50.828;6.080;2023-02-15T15:47:56;22.60;44.30
24144;DHT22;12307;50.828;6.080;2023-02-15T15:50:27;22.60;44.40
24144;DHT22;12307;50.828;6.080;2023-02-15T15:52:56;22.60;44.40
24144;DHT22;12307;50.828;6.080;2023-02-15T15:55:24;22.50;44.40
24144;DHT22;12307;50.828;6.080;2023-02-15T15:57:53;22.50;44.40
24144;DHT22;12307;50.828;6.080;2023-02-15T16:00:31;22.50;44.40
24144;DHT22;12307;50.828;6.080;2023-02-15T16:02:58;22.40;44.40
24144;DHT22;12307;50.828;6.080;2023-02-15T16:05:24;22.40;44.50
24144;DHT22;12307;50.828;6.080;2023-02-15T16:07:50;22.40;44.50
24144;DHT22;12307;50.828;6.080;2023-02-15T16:10:25;22.40;44.50
24144;DHT22;12307;50.828;6.080;2023-02-15T16:12:52;22.30;44.40
24144;DHT22;12307;50.828;6.080;2023-02-15T16:15:20;22.30;44.50
24144;DHT22;12307;50.828;6.080;2023-02-15T16:17:50;22.30;44.50
24144;DHT22;12307;50.828;6.080;2023-02-15T16:20:23;22.30;44.50